Terminal Aerodrome Forecast
Issued by NWS Sterling, VA

Current Version | Previous Version | Graphics & Text | Print | Product List | Glossary On
Versions: 1 2 3 4 5 6 7 8 9 10 11 12 13 14 15 16 17 18 19 20 21
000
FTUS41 KLWX 151449 AAA
TAFDCA
TAF AMD
KDCA 151449Z 1515/1612 22005KT P6SM BKN010
     FM151700 21010G17KT P6SM BKN015
     FM151800 20012KT P6SM SCT020
     FM151900 20012KT P6SM SCT250
     FM160200 23010G18KT P6SM BKN090
     FM160500 29011G19KT P6SM BKN060
     FM160900 32012G19KT P6SM -SHRA OVC045=

USA.gov is the U.S. government's official web portal to all federal, state and local government web resources and services.